Dundee, Ohio
Current Conditions -  °F | °C
As of 2:53 PM on Sunday 25 Jan 2015 (Local Time) from KPHD Reporting Station
Light Snow Light Snow  
Wind Chill: 28°   Ceiling: 700
Heat Index: 34°   Visibility: 4mi
Dew Point: 31°   Wind: 7mph
Humidity: 89%   Direction: 60°ENE
Pressure: 29.77"   Gusts: NA
Location:  40.59°N, 81.61°W
Report Text: KPHD 251953Z AUTO 06006KT 4SM -SN BR OVC007 01/M01 A2977 RMK AO2 RAE31SNB31 CIG 004V009 SLP088 P0000 T00111006
Loading
Personal Weather Stations






























Interactive Weather Map New forecast layout! Learn more

10-Day Weather Forecast

Advertisements
Track Severe Weather on mobile